sensor_id;sensor_type;location;lat;lon;timestamp;P1;durP1;ratioP1;P2;durP2;ratioP2
5077;SDS011;2557;51.390;7.494;2022-09-17T00:01:08;8.50;;;3.67;;
5077;SDS011;2557;51.390;7.494;2022-09-17T00:03:34;13.23;;;4.20;;
5077;SDS011;2557;51.390;7.494;2022-09-17T00:06:01;11.30;;;4.27;;
5077;SDS011;2557;51.390;7.494;2022-09-17T00:08:28;14.93;;;4.33;;
5077;SDS011;2557;51.390;7.494;2022-09-17T00:10:54;9.23;;;3.97;;
5077;SDS011;2557;51.390;7.494;2022-09-17T00:13:20;10.50;;;4.17;;
5077;SDS011;2557;51.390;7.494;2022-09-17T00:15:46;11.87;;;4.40;;
5077;SDS011;2557;51.390;7.494;2022-09-17T00:18:13;8.53;;;4.33;;
5077;SDS011;2557;51.390;7.494;2022-09-17T00:20:40;12.30;;;4.27;;
5077;SDS011;2557;51.390;7.494;2022-09-17T00:23:07;11.83;;;4.87;;
5077;SDS011;2557;51.390;7.494;2022-09-17T00:25:33;12.23;;;5.27;;
5077;SDS011;2557;51.390;7.494;2022-09-17T00:27:59;14.57;;;5.73;;
5077;SDS011;2557;51.390;7.494;2022-09-17T00:30:25;10.97;;;4.63;;
5077;SDS011;2557;51.390;7.494;2022-09-17T00:32:51;9.47;;;5.63;;
5077;SDS011;2557;51.390;7.494;2022-09-17T00:35:18;13.27;;;5.70;;
5077;SDS011;2557;51.390;7.494;2022-09-17T00:37:43;13.03;;;6.23;;
5077;SDS011;2557;51.390;7.494;2022-09-17T00:40:09;10.93;;;5.40;;
5077;SDS011;2557;51.390;7.494;2022-09-17T00:42:35;15.30;;;6.37;;
5077;SDS011;2557;51.390;7.494;2022-09-17T00:45:02;6.80;;;5.30;;
5077;SDS011;2557;51.390;7.494;2022-09-17T00:47:29;12.23;;;5.30;;
5077;SDS011;2557;51.390;7.494;2022-09-17T00:50:00;10.33;;;6.30;;
5077;SDS011;2557;51.390;7.494;2022-09-17T00:52:34;11.50;;;5.97;;
5077;SDS011;2557;51.390;7.494;2022-09-17T00:57:45;9.40;;;6.23;;
5077;SDS011;2557;51.390;7.494;2022-09-17T01:00:13;11.30;;;6.43;;
5077;SDS011;2557;51.390;7.494;2022-09-17T01:02:40;10.40;;;7.03;;
5077;SDS011;2557;51.390;7.494;2022-09-17T01:05:07;10.07;;;6.40;;
5077;SDS011;2557;51.390;7.494;2022-09-17T01:07:50;14.13;;;6.40;;
5077;SDS011;2557;51.390;7.494;2022-09-17T01:13:29;17.60;;;6.17;;
5077;SDS011;2557;51.390;7.494;2022-09-17T01:16:03;13.90;;;6.60;;
5077;SDS011;2557;51.390;7.494;2022-09-17T01:28:52;7.67;;;5.57;;
5077;SDS011;2557;51.390;7.494;2022-09-17T01:31:21;11.13;;;5.93;;
5077;SDS011;2557;51.390;7.494;2022-09-17T01:33:54;12.83;;;6.37;;
5077;SDS011;2557;51.390;7.494;2022-09-17T01:46:47;11.53;;;6.17;;
5077;SDS011;2557;51.390;7.494;2022-09-17T01:49:14;10.50;;;6.13;;
5077;SDS011;2557;51.390;7.494;2022-09-17T01:51:43;19.63;;;6.03;;
5077;SDS011;2557;51.390;7.494;2022-09-17T01:54:16;11.57;;;7.23;;
5077;SDS011;2557;51.390;7.494;2022-09-17T01:56:47;16.10;;;7.53;;
5077;SDS011;2557;51.390;7.494;2022-09-17T01:59:17;12.97;;;6.77;;
5077;SDS011;2557;51.390;7.494;2022-09-17T02:01:45;12.13;;;7.43;;
5077;SDS011;2557;51.390;7.494;2022-09-17T02:04:14;17.70;;;7.80;;
5077;SDS011;2557;51.390;7.494;2022-09-17T02:06:44;15.63;;;7.60;;
5077;SDS011;2557;51.390;7.494;2022-09-17T02:09:18;23.20;;;8.50;;
5077;SDS011;2557;51.390;7.494;2022-09-17T02:11:48;21.27;;;11.20;;
5077;SDS011;2557;51.390;7.494;2022-09-17T02:14:20;22.73;;;9.63;;
5077;SDS011;2557;51.390;7.494;2022-09-17T02:16:48;24.27;;;11.03;;
5077;SDS011;2557;51.390;7.494;2022-09-17T02:21:44;21.87;;;13.40;;
5077;SDS011;2557;51.390;7.494;2022-09-17T02:24:12;29.57;;;14.40;;
5077;SDS011;2557;51.390;7.494;2022-09-17T02:26:44;31.30;;;15.20;;
5077;SDS011;2557;51.390;7.494;2022-09-17T02:29:12;26.50;;;15.83;;
5077;SDS011;2557;51.390;7.494;2022-09-17T02:31:42;25.33;;;14.53;;
5077;SDS011;2557;51.390;7.494;2022-09-17T02:34:08;25.43;;;14.90;;
5077;SDS011;2557;51.390;7.494;2022-09-17T02:36:35;30.70;;;14.30;;
5077;SDS011;2557;51.390;7.494;2022-09-17T02:39:02;28.43;;;14.50;;
5077;SDS011;2557;51.390;7.494;2022-09-17T02:41:32;22.30;;;15.77;;
5077;SDS011;2557;51.390;7.494;2022-09-17T02:44:10;33.93;;;15.70;;
5077;SDS011;2557;51.390;7.494;2022-09-17T02:46:45;28.40;;;14.23;;
5077;SDS011;2557;51.390;7.494;2022-09-17T02:54:25;26.60;;;14.40;;
5077;SDS011;2557;51.390;7.494;2022-09-17T02:56:56;20.00;;;12.70;;
5077;SDS011;2557;51.390;7.494;2022-09-17T02:59:29;20.30;;;12.80;;
5077;SDS011;2557;51.390;7.494;2022-09-17T03:02:05;20.93;;;13.80;;
5077;SDS011;2557;51.390;7.494;2022-09-17T03:04:33;22.70;;;12.77;;
5077;SDS011;2557;51.390;7.494;2022-09-17T03:07:03;18.13;;;12.40;;
5077;SDS011;2557;51.390;7.494;2022-09-17T03:09:29;22.90;;;12.13;;
5077;SDS011;2557;51.390;7.494;2022-09-17T03:11:55;22.43;;;10.90;;
5077;SDS011;2557;51.390;7.494;2022-09-17T03:14:22;17.53;;;10.40;;
5077;SDS011;2557;51.390;7.494;2022-09-17T03:16:48;25.00;;;12.00;;
5077;SDS011;2557;51.390;7.494;2022-09-17T03:19:14;21.87;;;10.57;;
5077;SDS011;2557;51.390;7.494;2022-09-17T03:21:40;22.67;;;9.93;;
5077;SDS011;2557;51.390;7.494;2022-09-17T03:24:06;15.33;;;9.00;;
5077;SDS011;2557;51.390;7.494;2022-09-17T03:26:32;23.07;;;10.90;;
5077;SDS011;2557;51.390;7.494;2022-09-17T03:28:58;15.53;;;8.53;;
5077;SDS011;2557;51.390;7.494;2022-09-17T03:31:24;18.90;;;8.90;;
5077;SDS011;2557;51.390;7.494;2022-09-17T03:33:50;17.23;;;7.90;;
5077;SDS011;2557;51.390;7.494;2022-09-17T03:36:16;15.87;;;6.77;;
5077;SDS011;2557;51.390;7.494;2022-09-17T03:38:42;18.73;;;7.80;;
5077;SDS011;2557;51.390;7.494;2022-09-17T03:41:08;27.53;;;7.13;;
5077;SDS011;2557;51.390;7.494;2022-09-17T03:43:35;17.23;;;7.93;;
5077;SDS011;2557;51.390;7.494;2022-09-17T03:46:01;13.90;;;7.50;;
5077;SDS011;2557;51.390;7.494;2022-09-17T03:48:27;14.53;;;7.20;;
5077;SDS011;2557;51.390;7.494;2022-09-17T03:50:54;20.00;;;7.50;;
5077;SDS011;2557;51.390;7.494;2022-09-17T03:53:20;14.43;;;6.83;;
5077;SDS011;2557;51.390;7.494;2022-09-17T03:55:46;11.70;;;7.77;;
5077;SDS011;2557;51.390;7.494;2022-09-17T03:58:12;11.77;;;7.33;;
5077;SDS011;2557;51.390;7.494;2022-09-17T04:00:38;22.97;;;7.50;;
5077;SDS011;2557;51.390;7.494;2022-09-17T04:03:05;19.53;;;7.90;;
5077;SDS011;2557;51.390;7.494;2022-09-17T04:05:31;21.50;;;8.83;;
5077;SDS011;2557;51.390;7.494;2022-09-17T04:07:57;17.70;;;8.60;;
5077;SDS011;2557;51.390;7.494;2022-09-17T04:10:23;27.07;;;10.57;;
5077;SDS011;2557;51.390;7.494;2022-09-17T04:12:49;17.47;;;8.60;;
5077;SDS011;2557;51.390;7.494;2022-09-17T04:15:15;22.57;;;10.27;;
5077;SDS011;2557;51.390;7.494;2022-09-17T04:17:41;16.57;;;9.10;;
5077;SDS011;2557;51.390;7.494;2022-09-17T04:20:07;17.00;;;7.60;;
5077;SDS011;2557;51.390;7.494;2022-09-17T04:22:34;17.93;;;7.10;;
5077;SDS011;2557;51.390;7.494;2022-09-17T04:25:00;15.83;;;8.77;;
5077;SDS011;2557;51.390;7.494;2022-09-17T04:27:25;14.90;;;7.30;;
5077;SDS011;2557;51.390;7.494;2022-09-17T04:29:51;11.80;;;6.67;;
5077;SDS011;2557;51.390;7.494;2022-09-17T04:32:17;15.97;;;7.23;;
5077;SDS011;2557;51.390;7.494;2022-09-17T04:34:43;15.50;;;6.50;;
5077;SDS011;2557;51.390;7.494;2022-09-17T04:37:09;18.20;;;6.93;;
5077;SDS011;2557;51.390;7.494;2022-09-17T04:39:35;18.63;;;6.57;;
5077;SDS011;2557;51.390;7.494;2022-09-17T04:42:02;11.13;;;5.47;;
5077;SDS011;2557;51.390;7.494;2022-09-17T04:44:28;11.53;;;6.50;;
5077;SDS011;2557;51.390;7.494;2022-09-17T04:46:54;13.30;;;6.67;;
5077;SDS011;2557;51.390;7.494;2022-09-17T04:49:20;14.37;;;6.30;;
5077;SDS011;2557;51.390;7.494;2022-09-17T04:51:46;10.30;;;5.23;;
5077;SDS011;2557;51.390;7.494;2022-09-17T04:54:12;11.50;;;5.70;;
5077;SDS011;2557;51.390;7.494;2022-09-17T04:56:38;13.00;;;4.83;;
5077;SDS011;2557;51.390;7.494;2022-09-17T04:59:04;16.37;;;6.10;;
5077;SDS011;2557;51.390;7.494;2022-09-17T05:01:30;13.53;;;5.47;;
5077;SDS011;2557;51.390;7.494;2022-09-17T05:03:56;16.90;;;5.67;;
5077;SDS011;2557;51.390;7.494;2022-09-17T05:06:22;13.60;;;4.70;;
5077;SDS011;2557;51.390;7.494;2022-09-17T05:08:48;13.27;;;4.70;;
5077;SDS011;2557;51.390;7.494;2022-09-17T05:11:14;14.00;;;5.00;;
5077;SDS011;2557;51.390;7.494;2022-09-17T05:13:40;12.37;;;4.63;;
5077;SDS011;2557;51.390;7.494;2022-09-17T05:16:06;13.07;;;3.70;;
5077;SDS011;2557;51.390;7.494;2022-09-17T05:18:32;10.37;;;3.53;;
5077;SDS011;2557;51.390;7.494;2022-09-17T05:20:58;11.50;;;5.70;;
5077;SDS011;2557;51.390;7.494;2022-09-17T05:23:24;14.23;;;4.53;;
5077;SDS011;2557;51.390;7.494;2022-09-17T05:25:50;14.30;;;4.90;;
5077;SDS011;2557;51.390;7.494;2022-09-17T05:28:17;15.33;;;4.20;;
5077;SDS011;2557;51.390;7.494;2022-09-17T05:30:43;11.47;;;4.47;;
5077;SDS011;2557;51.390;7.494;2022-09-17T05:33:09;10.70;;;3.70;;
5077;SDS011;2557;51.390;7.494;2022-09-17T05:35:35;13.40;;;3.30;;
5077;SDS011;2557;51.390;7.494;2022-09-17T05:38:01;12.33;;;3.70;;
5077;SDS011;2557;51.390;7.494;2022-09-17T05:40:28;7.33;;;3.23;;
5077;SDS011;2557;51.390;7.494;2022-09-17T05:42:58;13.27;;;4.13;;
5077;SDS011;2557;51.390;7.494;2022-09-17T05:45:24;15.23;;;3.70;;
5077;SDS011;2557;51.390;7.494;2022-09-17T05:47:53;8.50;;;3.60;;
5077;SDS011;2557;51.390;7.494;2022-09-17T05:50:20;11.57;;;3.10;;
5077;SDS011;2557;51.390;7.494;2022-09-17T05:52:46;12.67;;;3.97;;
5077;SDS011;2557;51.390;7.494;2022-09-17T05:55:12;11.83;;;4.00;;
5077;SDS011;2557;51.390;7.494;2022-09-17T05:57:38;11.10;;;4.00;;
5077;SDS011;2557;51.390;7.494;2022-09-17T06:00:04;14.30;;;4.50;;
5077;SDS011;2557;51.390;7.494;2022-09-17T06:02:31;16.00;;;3.50;;
5077;SDS011;2557;51.390;7.494;2022-09-17T06:04:57;11.57;;;3.60;;
5077;SDS011;2557;51.390;7.494;2022-09-17T06:07:25;10.83;;;3.60;;
5077;SDS011;2557;51.390;7.494;2022-09-17T06:09:51;9.93;;;2.90;;
5077;SDS011;2557;51.390;7.494;2022-09-17T06:12:17;7.50;;;3.00;;
5077;SDS011;2557;51.390;7.494;2022-09-17T06:14:43;11.50;;;3.90;;
5077;SDS011;2557;51.390;7.494;2022-09-17T06:17:09;10.67;;;3.80;;
5077;SDS011;2557;51.390;7.494;2022-09-17T06:19:35;22.33;;;4.20;;
5077;SDS011;2557;51.390;7.494;2022-09-17T06:22:01;9.50;;;3.27;;
5077;SDS011;2557;51.390;7.494;2022-09-17T06:24:29;9.23;;;3.43;;
5077;SDS011;2557;51.390;7.494;2022-09-17T06:26:55;10.40;;;3.50;;
5077;SDS011;2557;51.390;7.494;2022-09-17T06:29:21;9.07;;;2.80;;
5077;SDS011;2557;51.390;7.494;2022-09-17T06:31:47;9.50;;;3.30;;
5077;SDS011;2557;51.390;7.494;2022-09-17T06:34:13;6.87;;;2.17;;
5077;SDS011;2557;51.390;7.494;2022-09-17T06:36:39;12.97;;;3.53;;
5077;SDS011;2557;51.390;7.494;2022-09-17T06:39:05;12.23;;;2.97;;
5077;SDS011;2557;51.390;7.494;2022-09-17T06:41:31;10.10;;;3.00;;
5077;SDS011;2557;51.390;7.494;2022-09-17T06:43:57;7.87;;;2.73;;
5077;SDS011;2557;51.390;7.494;2022-09-17T06:46:23;7.00;;;3.50;;
5077;SDS011;2557;51.390;7.494;2022-09-17T06:48:50;16.17;;;3.50;;
5077;SDS011;2557;51.390;7.494;2022-09-17T06:51:16;12.40;;;3.23;;
5077;SDS011;2557;51.390;7.494;2022-09-17T06:53:42;10.20;;;2.93;;
5077;SDS011;2557;51.390;7.494;2022-09-17T06:56:08;10.13;;;3.13;;
5077;SDS011;2557;51.390;7.494;2022-09-17T06:58:34;9.80;;;2.60;;
5077;SDS011;2557;51.390;7.494;2022-09-17T07:01:01;11.20;;;3.07;;
5077;SDS011;2557;51.390;7.494;2022-09-17T07:03:28;16.70;;;3.30;;
5077;SDS011;2557;51.390;7.494;2022-09-17T07:05:54;14.83;;;2.93;;
5077;SDS011;2557;51.390;7.494;2022-09-17T07:08:21;10.10;;;2.97;;
5077;SDS011;2557;51.390;7.494;2022-09-17T07:10:47;8.43;;;3.73;;
5077;SDS011;2557;51.390;7.494;2022-09-17T07:13:13;8.10;;;3.10;;
5077;SDS011;2557;51.390;7.494;2022-09-17T07:15:39;8.17;;;3.20;;
5077;SDS011;2557;51.390;7.494;2022-09-17T07:18:11;8.97;;;3.73;;
5077;SDS011;2557;51.390;7.494;2022-09-17T07:20:37;10.30;;;3.53;;
5077;SDS011;2557;51.390;7.494;2022-09-17T07:23:03;9.83;;;3.70;;
5077;SDS011;2557;51.390;7.494;2022-09-17T07:25:29;13.63;;;5.00;;
5077;SDS011;2557;51.390;7.494;2022-09-17T07:27:55;12.70;;;4.00;;
5077;SDS011;2557;51.390;7.494;2022-09-17T07:30:21;14.13;;;3.70;;
5077;SDS011;2557;51.390;7.494;2022-09-17T07:32:47;7.73;;;3.23;;
5077;SDS011;2557;51.390;7.494;2022-09-17T07:35:13;7.83;;;3.10;;
5077;SDS011;2557;51.390;7.494;2022-09-17T07:37:39;9.20;;;3.87;;
5077;SDS011;2557;51.390;7.494;2022-09-17T07:40:05;17.03;;;3.57;;
5077;SDS011;2557;51.390;7.494;2022-09-17T07:42:32;7.47;;;3.27;;
5077;SDS011;2557;51.390;7.494;2022-09-17T07:44:58;5.97;;;2.87;;
5077;SDS011;2557;51.390;7.494;2022-09-17T07:47:24;10.83;;;2.70;;
5077;SDS011;2557;51.390;7.494;2022-09-17T07:49:50;7.80;;;3.03;;
5077;SDS011;2557;51.390;7.494;2022-09-17T07:52:16;7.10;;;2.40;;
5077;SDS011;2557;51.390;7.494;2022-09-17T07:54:42;11.17;;;3.30;;
5077;SDS011;2557;51.390;7.494;2022-09-17T07:57:08;5.40;;;2.93;;
5077;SDS011;2557;51.390;7.494;2022-09-17T07:59:34;5.90;;;2.80;;
5077;SDS011;2557;51.390;7.494;2022-09-17T08:02:00;6.67;;;3.43;;
5077;SDS011;2557;51.390;7.494;2022-09-17T08:04:26;10.83;;;3.50;;
5077;SDS011;2557;51.390;7.494;2022-09-17T08:06:52;6.30;;;2.83;;
5077;SDS011;2557;51.390;7.494;2022-09-17T08:09:18;9.00;;;3.03;;
5077;SDS011;2557;51.390;7.494;2022-09-17T08:11:44;11.40;;;4.23;;
5077;SDS011;2557;51.390;7.494;2022-09-17T08:14:11;9.27;;;3.43;;
5077;SDS011;2557;51.390;7.494;2022-09-17T08:16:37;6.60;;;2.70;;
5077;SDS011;2557;51.390;7.494;2022-09-17T08:19:03;11.23;;;2.90;;
5077;SDS011;2557;51.390;7.494;2022-09-17T08:21:29;6.90;;;2.80;;
5077;SDS011;2557;51.390;7.494;2022-09-17T08:23:55;6.63;;;2.70;;
5077;SDS011;2557;51.390;7.494;2022-09-17T08:26:21;8.80;;;2.90;;
5077;SDS011;2557;51.390;7.494;2022-09-17T08:28:49;10.00;;;4.37;;
5077;SDS011;2557;51.390;7.494;2022-09-17T08:31:16;6.07;;;2.57;;
5077;SDS011;2557;51.390;7.494;2022-09-17T08:33:43;14.63;;;3.17;;
5077;SDS011;2557;51.390;7.494;2022-09-17T08:36:10;9.43;;;3.00;;
5077;SDS011;2557;51.390;7.494;2022-09-17T08:38:36;7.70;;;3.70;;
5077;SDS011;2557;51.390;7.494;2022-09-17T08:43:41;10.87;;;3.07;;
5077;SDS011;2557;51.390;7.494;2022-09-17T08:46:10;6.13;;;2.73;;
5077;SDS011;2557;51.390;7.494;2022-09-17T08:48:38;7.43;;;2.13;;
5077;SDS011;2557;51.390;7.494;2022-09-17T08:51:10;8.67;;;2.40;;
5077;SDS011;2557;51.390;7.494;2022-09-17T08:53:45;9.83;;;2.50;;
5077;SDS011;2557;51.390;7.494;2022-09-17T08:56:16;7.77;;;2.43;;
5077;SDS011;2557;51.390;7.494;2022-09-17T08:58:49;8.13;;;2.40;;
5077;SDS011;2557;51.390;7.494;2022-09-17T09:01:32;6.50;;;2.20;;
5077;SDS011;2557;51.390;7.494;2022-09-17T09:04:10;8.17;;;2.53;;
5077;SDS011;2557;51.390;7.494;2022-09-17T09:06:38;5.43;;;2.77;;
5077;SDS011;2557;51.390;7.494;2022-09-17T09:09:10;5.73;;;2.10;;
5077;SDS011;2557;51.390;7.494;2022-09-17T09:11:37;5.10;;;2.00;;
5077;SDS011;2557;51.390;7.494;2022-09-17T09:16:40;7.27;;;2.07;;
5077;SDS011;2557;51.390;7.494;2022-09-17T09:21:42;5.20;;;2.70;;
5077;SDS011;2557;51.390;7.494;2022-09-17T09:26:46;5.53;;;1.80;;
5077;SDS011;2557;51.390;7.494;2022-09-17T09:32:20;6.50;;;2.83;;
5077;SDS011;2557;51.390;7.494;2022-09-17T09:34:49;4.30;;;1.73;;
5077;SDS011;2557;51.390;7.494;2022-09-17T09:39:45;4.50;;;1.97;;
5077;SDS011;2557;51.390;7.494;2022-09-17T09:42:14;5.33;;;1.87;;
5077;SDS011;2557;51.390;7.494;2022-09-17T09:44:43;5.60;;;2.90;;
5077;SDS011;2557;51.390;7.494;2022-09-17T09:47:16;10.37;;;2.13;;
5077;SDS011;2557;51.390;7.494;2022-09-17T09:49:51;3.60;;;2.30;;
5077;SDS011;2557;51.390;7.494;2022-09-17T09:57:51;5.97;;;2.00;;
5077;SDS011;2557;51.390;7.494;2022-09-17T10:00:21;2.27;;;1.87;;
5077;SDS011;2557;51.390;7.494;2022-09-17T10:02:48;3.67;;;1.70;;
5077;SDS011;2557;51.390;7.494;2022-09-17T10:05:17;4.47;;;1.90;;
5077;SDS011;2557;51.390;7.494;2022-09-17T10:07:43;4.17;;;1.90;;
5077;SDS011;2557;51.390;7.494;2022-09-17T10:10:10;4.13;;;1.50;;
5077;SDS011;2557;51.390;7.494;2022-09-17T10:12:36;5.37;;;1.60;;
5077;SDS011;2557;51.390;7.494;2022-09-17T10:17:46;3.07;;;1.57;;
5077;SDS011;2557;51.390;7.494;2022-09-17T10:20:14;4.30;;;1.20;;
5077;SDS011;2557;51.390;7.494;2022-09-17T10:22:41;2.90;;;2.07;;
5077;SDS011;2557;51.390;7.494;2022-09-17T10:25:21;6.20;;;1.90;;
5077;SDS011;2557;51.390;7.494;2022-09-17T10:27:47;6.43;;;1.77;;
5077;SDS011;2557;51.390;7.494;2022-09-17T10:30:15;3.17;;;1.20;;
5077;SDS011;2557;51.390;7.494;2022-09-17T10:32:41;4.80;;;1.50;;
5077;SDS011;2557;51.390;7.494;2022-09-17T10:37:43;7.90;;;2.67;;
5077;SDS011;2557;51.390;7.494;2022-09-17T10:42:42;2.40;;;1.20;;
5077;SDS011;2557;51.390;7.494;2022-09-17T10:45:10;2.83;;;1.60;;
5077;SDS011;2557;51.390;7.494;2022-09-17T10:47:48;4.60;;;1.30;;
5077;SDS011;2557;51.390;7.494;2022-09-17T10:50:19;1.10;;;0.93;;
5077;SDS011;2557;51.390;7.494;2022-09-17T10:53:19;2.30;;;1.33;;
5077;SDS011;2557;51.390;7.494;2022-09-17T11:05:47;1.47;;;1.33;;
5077;SDS011;2557;51.390;7.494;2022-09-17T11:08:28;4.43;;;1.80;;
5077;SDS011;2557;51.390;7.494;2022-09-17T11:11:01;2.60;;;1.23;;
5077;SDS011;2557;51.390;7.494;2022-09-17T11:13:32;1.57;;;1.47;;
5077;SDS011;2557;51.390;7.494;2022-09-17T11:16:07;2.87;;;1.63;;
5077;SDS011;2557;51.390;7.494;2022-09-17T11:21:08;2.90;;;1.77;;
5077;SDS011;2557;51.390;7.494;2022-09-17T11:26:38;6.00;;;1.23;;
5077;SDS011;2557;51.390;7.494;2022-09-17T11:32:06;5.10;;;1.60;;
5077;SDS011;2557;51.390;7.494;2022-09-17T11:34:36;1.23;;;1.13;;
5077;SDS011;2557;51.390;7.494;2022-09-17T11:37:49;2.00;;;1.27;;
5077;SDS011;2557;51.390;7.494;2022-09-17T11:39:58;2.70;;;1.00;;
5077;SDS011;2557;51.390;7.494;2022-09-17T11:42:27;2.77;;;1.23;;
5077;SDS011;2557;51.390;7.494;2022-09-17T11:45:00;2.50;;;1.50;;
5077;SDS011;2557;51.390;7.494;2022-09-17T11:47:32;2.37;;;1.20;;
5077;SDS011;2557;51.390;7.494;2022-09-17T11:50:00;1.17;;;1.07;;
5077;SDS011;2557;51.390;7.494;2022-09-17T11:52:31;1.80;;;1.20;;
5077;SDS011;2557;51.390;7.494;2022-09-17T11:55:15;3.03;;;1.20;;
5077;SDS011;2557;51.390;7.494;2022-09-17T11:57:42;1.90;;;1.17;;
5077;SDS011;2557;51.390;7.494;2022-09-17T12:02:46;1.90;;;1.20;;
5077;SDS011;2557;51.390;7.494;2022-09-17T12:05:30;2.70;;;1.00;;
5077;SDS011;2557;51.390;7.494;2022-09-17T12:10:46;1.33;;;0.90;;
5077;SDS011;2557;51.390;7.494;2022-09-17T12:16:00;3.77;;;1.10;;
5077;SDS011;2557;51.390;7.494;2022-09-17T12:18:31;1.33;;;1.10;;
5077;SDS011;2557;51.390;7.494;2022-09-17T12:21:04;1.50;;;1.10;;
5077;SDS011;2557;51.390;7.494;2022-09-17T12:23:36;1.10;;;1.00;;
5077;SDS011;2557;51.390;7.494;2022-09-17T12:28:42;2.97;;;1.13;;
5077;SDS011;2557;51.390;7.494;2022-09-17T12:31:22;1.67;;;1.10;;
5077;SDS011;2557;51.390;7.494;2022-09-17T12:34:00;1.70;;;1.10;;
5077;SDS011;2557;51.390;7.494;2022-09-17T12:36:40;2.43;;;1.33;;
5077;SDS011;2557;51.390;7.494;2022-09-17T12:42:00;2.00;;;1.10;;
5077;SDS011;2557;51.390;7.494;2022-09-17T12:51:55;2.47;;;1.13;;
5077;SDS011;2557;51.390;7.494;2022-09-17T12:59:29;2.03;;;1.27;;
5077;SDS011;2557;51.390;7.494;2022-09-17T13:02:01;2.80;;;1.30;;
5077;SDS011;2557;51.390;7.494;2022-09-17T13:04:37;1.93;;;1.37;;
5077;SDS011;2557;51.390;7.494;2022-09-17T13:07:12;1.83;;;1.60;;
5077;SDS011;2557;51.390;7.494;2022-09-17T13:14:47;2.77;;;1.47;;
5077;SDS011;2557;51.390;7.494;2022-09-17T13:17:23;3.00;;;1.50;;
5077;SDS011;2557;51.390;7.494;2022-09-17T13:22:25;3.73;;;1.60;;
5077;SDS011;2557;51.390;7.494;2022-09-17T13:25:08;5.67;;;1.70;;
5077;SDS011;2557;51.390;7.494;2022-09-17T13:27:35;3.53;;;1.67;;
5077;SDS011;2557;51.390;7.494;2022-09-17T13:30:06;5.40;;;1.70;;
5077;SDS011;2557;51.390;7.494;2022-09-17T13:37:35;6.80;;;2.10;;
5077;SDS011;2557;51.390;7.494;2022-09-17T13:40:03;14.30;;;2.20;;
5077;SDS011;2557;51.390;7.494;2022-09-17T13:42:31;9.13;;;3.10;;
5077;SDS011;2557;51.390;7.494;2022-09-17T13:45:08;11.10;;;2.40;;
5077;SDS011;2557;51.390;7.494;2022-09-17T13:47:35;3.57;;;2.20;;
5077;SDS011;2557;51.390;7.494;2022-09-17T13:50:09;9.93;;;1.90;;
5077;SDS011;2557;51.390;7.494;2022-09-17T13:52:38;5.03;;;1.80;;
5077;SDS011;2557;51.390;7.494;2022-09-17T13:55:06;6.27;;;2.13;;
5077;SDS011;2557;51.390;7.494;2022-09-17T13:57:34;3.63;;;1.97;;
5077;SDS011;2557;51.390;7.494;2022-09-17T14:00:27;3.93;;;1.63;;
5077;SDS011;2557;51.390;7.494;2022-09-17T14:03:09;6.63;;;2.27;;
5077;SDS011;2557;51.390;7.494;2022-09-17T14:05:43;5.60;;;2.20;;
5077;SDS011;2557;51.390;7.494;2022-09-17T14:08:10;2.80;;;1.43;;
5077;SDS011;2557;51.390;7.494;2022-09-17T14:10:41;6.67;;;2.30;;
5077;SDS011;2557;51.390;7.494;2022-09-17T14:13:23;9.77;;;2.33;;
5077;SDS011;2557;51.390;7.494;2022-09-17T14:15:54;2.80;;;1.70;;
5077;SDS011;2557;51.390;7.494;2022-09-17T14:23:31;3.63;;;1.80;;
5077;SDS011;2557;51.390;7.494;2022-09-17T14:25:58;2.83;;;1.60;;
5077;SDS011;2557;51.390;7.494;2022-09-17T14:28:29;4.63;;;1.80;;
5077;SDS011;2557;51.390;7.494;2022-09-17T14:30:59;5.90;;;2.50;;
5077;SDS011;2557;51.390;7.494;2022-09-17T14:33:27;2.07;;;1.50;;
5077;SDS011;2557;51.390;7.494;2022-09-17T14:36:17;3.27;;;1.90;;
5077;SDS011;2557;51.390;7.494;2022-09-17T14:38:49;4.30;;;2.10;;
5077;SDS011;2557;51.390;7.494;2022-09-17T14:41:18;3.10;;;1.83;;
5077;SDS011;2557;51.390;7.494;2022-09-17T14:43:53;9.60;;;6.70;;
5077;SDS011;2557;51.390;7.494;2022-09-17T14:46:26;5.17;;;3.17;;
5077;SDS011;2557;51.390;7.494;2022-09-17T14:48:53;4.40;;;2.40;;
5077;SDS011;2557;51.390;7.494;2022-09-17T14:51:24;4.30;;;3.90;;
5077;SDS011;2557;51.390;7.494;2022-09-17T14:56:50;3.93;;;2.10;;
5077;SDS011;2557;51.390;7.494;2022-09-17T14:59:21;9.40;;;6.87;;
5077;SDS011;2557;51.390;7.494;2022-09-17T15:01:48;3.17;;;2.00;;
5077;SDS011;2557;51.390;7.494;2022-09-17T15:04:19;3.00;;;1.60;;
5077;SDS011;2557;51.390;7.494;2022-09-17T15:06:45;3.03;;;2.33;;
5077;SDS011;2557;51.390;7.494;2022-09-17T15:09:21;7.57;;;4.20;;
5077;SDS011;2557;51.390;7.494;2022-09-17T15:11:47;5.50;;;2.47;;
5077;SDS011;2557;51.390;7.494;2022-09-17T15:14:17;2.20;;;2.00;;
5077;SDS011;2557;51.390;7.494;2022-09-17T15:16:47;2.93;;;1.90;;
5077;SDS011;2557;51.390;7.494;2022-09-17T15:19:13;2.63;;;1.90;;
5077;SDS011;2557;51.390;7.494;2022-09-17T15:21:44;3.83;;;3.60;;
5077;SDS011;2557;51.390;7.494;2022-09-17T15:26:58;7.37;;;5.03;;
5077;SDS011;2557;51.390;7.494;2022-09-17T15:29:27;7.47;;;3.83;;
5077;SDS011;2557;51.390;7.494;2022-09-17T15:31:55;3.93;;;1.87;;
5077;SDS011;2557;51.390;7.494;2022-09-17T15:34:21;3.33;;;1.40;;
5077;SDS011;2557;51.390;7.494;2022-09-17T15:39:30;3.67;;;2.00;;
5077;SDS011;2557;51.390;7.494;2022-09-17T15:41:57;3.63;;;1.70;;
5077;SDS011;2557;51.390;7.494;2022-09-17T15:44:23;8.47;;;1.90;;
5077;SDS011;2557;51.390;7.494;2022-09-17T15:46:50;5.13;;;2.23;;
5077;SDS011;2557;51.390;7.494;2022-09-17T15:49:27;2.13;;;1.60;;
5077;SDS011;2557;51.390;7.494;2022-09-17T15:51:53;6.30;;;1.60;;
5077;SDS011;2557;51.390;7.494;2022-09-17T15:54:29;8.23;;;3.13;;
5077;SDS011;2557;51.390;7.494;2022-09-17T15:56:58;4.80;;;2.40;;
5077;SDS011;2557;51.390;7.494;2022-09-17T15:59:28;1.87;;;1.47;;
5077;SDS011;2557;51.390;7.494;2022-09-17T16:01:56;4.10;;;2.57;;
5077;SDS011;2557;51.390;7.494;2022-09-17T16:09:34;3.43;;;2.00;;
5077;SDS011;2557;51.390;7.494;2022-09-17T16:12:00;2.23;;;2.03;;
5077;SDS011;2557;51.390;7.494;2022-09-17T16:14:26;10.53;;;2.20;;
5077;SDS011;2557;51.390;7.494;2022-09-17T16:16:52;7.33;;;2.03;;
5077;SDS011;2557;51.390;7.494;2022-09-17T16:19:20;2.50;;;1.80;;
5077;SDS011;2557;51.390;7.494;2022-09-17T16:21:46;3.83;;;2.27;;
5077;SDS011;2557;51.390;7.494;2022-09-17T16:24:12;4.00;;;1.73;;
5077;SDS011;2557;51.390;7.494;2022-09-17T16:26:38;5.80;;;1.90;;
5077;SDS011;2557;51.390;7.494;2022-09-17T16:29:05;3.73;;;2.03;;
5077;SDS011;2557;51.390;7.494;2022-09-17T16:31:33;6.13;;;2.13;;
5077;SDS011;2557;51.390;7.494;2022-09-17T16:33:59;3.47;;;2.43;;
5077;SDS011;2557;51.390;7.494;2022-09-17T16:36:25;4.73;;;2.73;;
5077;SDS011;2557;51.390;7.494;2022-09-17T16:38:51;6.47;;;2.10;;
5077;SDS011;2557;51.390;7.494;2022-09-17T16:41:17;2.50;;;1.87;;
5077;SDS011;2557;51.390;7.494;2022-09-17T16:43:43;14.17;;;2.43;;
5077;SDS011;2557;51.390;7.494;2022-09-17T16:46:09;3.00;;;1.73;;
5077;SDS011;2557;51.390;7.494;2022-09-17T16:48:36;3.57;;;1.80;;
5077;SDS011;2557;51.390;7.494;2022-09-17T16:51:06;3.67;;;1.67;;
5077;SDS011;2557;51.390;7.494;2022-09-17T16:53:32;5.53;;;2.10;;
5077;SDS011;2557;51.390;7.494;2022-09-17T16:55:58;2.07;;;1.90;;
5077;SDS011;2557;51.390;7.494;2022-09-17T16:58:24;6.50;;;2.80;;
5077;SDS011;2557;51.390;7.494;2022-09-17T17:00:51;5.10;;;1.90;;
5077;SDS011;2557;51.390;7.494;2022-09-17T17:03:17;7.20;;;2.70;;
5077;SDS011;2557;51.390;7.494;2022-09-17T17:05:43;5.67;;;3.07;;
5077;SDS011;2557;51.390;7.494;2022-09-17T17:08:09;3.80;;;1.70;;
5077;SDS011;2557;51.390;7.494;2022-09-17T17:10:36;3.57;;;1.70;;
5077;SDS011;2557;51.390;7.494;2022-09-17T17:13:03;3.43;;;1.57;;
5077;SDS011;2557;51.390;7.494;2022-09-17T17:15:30;2.80;;;2.50;;
5077;SDS011;2557;51.390;7.494;2022-09-17T17:17:56;3.87;;;1.80;;
5077;SDS011;2557;51.390;7.494;2022-09-17T17:20:22;4.83;;;2.30;;
5077;SDS011;2557;51.390;7.494;2022-09-17T17:22:48;7.50;;;2.50;;
5077;SDS011;2557;51.390;7.494;2022-09-17T17:25:16;9.03;;;2.20;;
5077;SDS011;2557;51.390;7.494;2022-09-17T17:27:42;1.90;;;1.70;;
5077;SDS011;2557;51.390;7.494;2022-09-17T17:30:09;4.23;;;2.07;;
5077;SDS011;2557;51.390;7.494;2022-09-17T17:32:40;4.63;;;2.57;;
5077;SDS011;2557;51.390;7.494;2022-09-17T17:35:07;3.47;;;1.77;;